sensor_id;sensor_type;location;lat;lon;timestamp;temperature;humidity
1405;DHT22;697;51.114;6.542;2023-04-09T00:00:14;11.40;95.60
1405;DHT22;697;51.114;6.542;2023-04-09T00:02:41;11.30;95.50
1405;DHT22;697;51.114;6.542;2023-04-09T00:05:09;11.20;95.50
1405;DHT22;697;51.114;6.542;2023-04-09T00:07:35;11.20;95.50
1405;DHT22;697;51.114;6.542;2023-04-09T00:10:02;11.10;95.60
1405;DHT22;697;51.114;6.542;2023-04-09T00:12:29;11.10;95.70
1405;DHT22;697;51.114;6.542;2023-04-09T00:14:56;11.10;95.80
1405;DHT22;697;51.114;6.542;2023-04-09T00:17:23;11.10;95.90
1405;DHT22;697;51.114;6.542;2023-04-09T00:19:50;11.00;95.90
1405;DHT22;697;51.114;6.542;2023-04-09T00:22:18;11.00;95.90
1405;DHT22;697;51.114;6.542;2023-04-09T00:24:45;11.00;95.90
1405;DHT22;697;51.114;6.542;2023-04-09T00:27:12;10.90;95.80
1405;DHT22;697;51.114;6.542;2023-04-09T00:29:38;10.80;95.50
1405;DHT22;697;51.114;6.542;2023-04-09T00:32:05;10.70;95.40
1405;DHT22;697;51.114;6.542;2023-04-09T00:34:32;10.60;95.10
1405;DHT22;697;51.114;6.542;2023-04-09T00:36:59;10.50;95.00
1405;DHT22;697;51.114;6.542;2023-04-09T00:39:27;10.40;95.00
1405;DHT22;697;51.114;6.542;2023-04-09T00:41:57;10.30;95.00
1405;DHT22;697;51.114;6.542;2023-04-09T00:44:24;10.30;95.00
1405;DHT22;697;51.114;6.542;2023-04-09T00:46:51;10.20;95.00
1405;DHT22;697;51.114;6.542;2023-04-09T00:49:18;10.20;95.20
1405;DHT22;697;51.114;6.542;2023-04-09T00:51:45;10.10;95.20
1405;DHT22;697;51.114;6.542;2023-04-09T00:54:12;10.10;95.30
1405;DHT22;697;51.114;6.542;2023-04-09T00:56:41;10.00;95.40
1405;DHT22;697;51.114;6.542;2023-04-09T00:59:09;10.00;95.50
1405;DHT22;697;51.114;6.542;2023-04-09T01:01:36;10.00;95.70
1405;DHT22;697;51.114;6.542;2023-04-09T01:04:02;10.00;96.00
1405;DHT22;697;51.114;6.542;2023-04-09T01:06:35;10.00;96.30
1405;DHT22;697;51.114;6.542;2023-04-09T01:09:07;10.10;96.60
1405;DHT22;697;51.114;6.542;2023-04-09T01:11:37;10.10;96.90
1405;DHT22;697;51.114;6.542;2023-04-09T01:14:15;10.10;97.10
1405;DHT22;697;51.114;6.542;2023-04-09T01:16:48;10.10;97.20
1405;DHT22;697;51.114;6.542;2023-04-09T01:19:25;10.10;97.20
1405;DHT22;697;51.114;6.542;2023-04-09T01:21:56;10.10;97.20
1405;DHT22;697;51.114;6.542;2023-04-09T01:24:35;10.00;97.10
1405;DHT22;697;51.114;6.542;2023-04-09T01:27:06;10.00;97.10
1405;DHT22;697;51.114;6.542;2023-04-09T01:29:37;10.00;97.20
1405;DHT22;697;51.114;6.542;2023-04-09T01:32:05;10.00;97.40
1405;DHT22;697;51.114;6.542;2023-04-09T01:34:32;10.00;97.60
1405;DHT22;697;51.114;6.542;2023-04-09T01:37:02;10.10;97.90
1405;DHT22;697;51.114;6.542;2023-04-09T01:39:29;10.10;98.10
1405;DHT22;697;51.114;6.542;2023-04-09T01:41:56;10.10;98.30
1405;DHT22;697;51.114;6.542;2023-04-09T01:44:23;10.10;98.40
1405;DHT22;697;51.114;6.542;2023-04-09T01:46:52;10.10;98.50
1405;DHT22;697;51.114;6.542;2023-04-09T01:49:19;10.10;98.50
1405;DHT22;697;51.114;6.542;2023-04-09T01:51:47;10.10;98.50
1405;DHT22;697;51.114;6.542;2023-04-09T01:54:15;10.10;98.50
1405;DHT22;697;51.114;6.542;2023-04-09T01:56:43;10.10;98.40
1405;DHT22;697;51.114;6.542;2023-04-09T01:59:10;10.10;98.30
1405;DHT22;697;51.114;6.542;2023-04-09T02:01:40;10.00;98.20
1405;DHT22;697;51.114;6.542;2023-04-09T02:04:14;10.00;98.20
1405;DHT22;697;51.114;6.542;2023-04-09T02:06:46;10.00;98.20
1405;DHT22;697;51.114;6.542;2023-04-09T02:09:16;10.00;98.10
1405;DHT22;697;51.114;6.542;2023-04-09T02:11:46;10.00;98.10
1405;DHT22;697;51.114;6.542;2023-04-09T02:14:15;10.00;98.10
1405;DHT22;697;51.114;6.542;2023-04-09T02:16:42;10.00;98.10
1405;DHT22;697;51.114;6.542;2023-04-09T02:19:10;9.90;98.50
1405;DHT22;697;51.114;6.542;2023-04-09T02:21:37;9.90;98.40
1405;DHT22;697;51.114;6.542;2023-04-09T02:24:04;9.80;98.30
1405;DHT22;697;51.114;6.542;2023-04-09T02:26:30;9.80;98.10
1405;DHT22;697;51.114;6.542;2023-04-09T02:28:57;9.70;97.90
1405;DHT22;697;51.114;6.542;2023-04-09T02:31:24;9.70;97.80
1405;DHT22;697;51.114;6.542;2023-04-09T02:33:50;9.70;97.70
1405;DHT22;697;51.114;6.542;2023-04-09T02:36:19;9.60;97.50
1405;DHT22;697;51.114;6.542;2023-04-09T02:38:46;9.60;97.40
1405;DHT22;697;51.114;6.542;2023-04-09T02:41:13;9.50;97.30
1405;DHT22;697;51.114;6.542;2023-04-09T02:43:40;9.40;97.10
1405;DHT22;697;51.114;6.542;2023-04-09T02:46:06;9.40;97.10
1405;DHT22;697;51.114;6.542;2023-04-09T02:48:33;9.30;97.10
1405;DHT22;697;51.114;6.542;2023-04-09T02:51:00;9.30;97.10
1405;DHT22;697;51.114;6.542;2023-04-09T02:53:28;9.30;97.20
1405;DHT22;697;51.114;6.542;2023-04-09T02:55:55;9.20;97.10
1405;DHT22;697;51.114;6.542;2023-04-09T02:58:21;9.20;97.20
1405;DHT22;697;51.114;6.542;2023-04-09T03:00:48;9.20;97.20
1405;DHT22;697;51.114;6.542;2023-04-09T03:03:15;9.10;97.20
1405;DHT22;697;51.114;6.542;2023-04-09T03:05:41;9.10;97.10
1405;DHT22;697;51.114;6.542;2023-04-09T03:08:08;9.10;97.10
1405;DHT22;697;51.114;6.542;2023-04-09T03:10:36;9.10;97.10
1405;DHT22;697;51.114;6.542;2023-04-09T03:13:03;9.00;97.00
1405;DHT22;697;51.114;6.542;2023-04-09T03:15:30;9.00;97.00
1405;DHT22;697;51.114;6.542;2023-04-09T03:17:56;8.90;97.10
1405;DHT22;697;51.114;6.542;2023-04-09T03:20:23;8.90;97.10
1405;DHT22;697;51.114;6.542;2023-04-09T03:22:50;8.90;97.20
1405;DHT22;697;51.114;6.542;2023-04-09T03:25:16;8.90;97.30
1405;DHT22;697;51.114;6.542;2023-04-09T03:27:46;8.80;97.30
1405;DHT22;697;51.114;6.542;2023-04-09T03:30:13;8.80;97.30
1405;DHT22;697;51.114;6.542;2023-04-09T03:32:40;8.80;97.40
1405;DHT22;697;51.114;6.542;2023-04-09T03:35:07;8.70;97.50
1405;DHT22;697;51.114;6.542;2023-04-09T03:37:33;8.70;97.60
1405;DHT22;697;51.114;6.542;2023-04-09T03:40:00;8.60;97.50
1405;DHT22;697;51.114;6.542;2023-04-09T03:42:27;8.60;97.50
1405;DHT22;697;51.114;6.542;2023-04-09T03:44:55;8.50;97.40
1405;DHT22;697;51.114;6.542;2023-04-09T03:47:22;8.50;97.30
1405;DHT22;697;51.114;6.542;2023-04-09T03:49:48;8.40;97.20
1405;DHT22;697;51.114;6.542;2023-04-09T03:52:15;8.40;97.20
1405;DHT22;697;51.114;6.542;2023-04-09T03:54:42;8.40;97.30
1405;DHT22;697;51.114;6.542;2023-04-09T03:57:08;8.40;97.40
1405;DHT22;697;51.114;6.542;2023-04-09T03:59:35;8.30;97.40
1405;DHT22;697;51.114;6.542;2023-04-09T04:02:03;8.30;97.50
1405;DHT22;697;51.114;6.542;2023-04-09T04:04:30;8.30;97.60
1405;DHT22;697;51.114;6.542;2023-04-09T04:06:57;8.30;97.80
1405;DHT22;697;51.114;6.542;2023-04-09T04:09:23;8.30;97.80
1405;DHT22;697;51.114;6.542;2023-04-09T04:11:50;8.30;97.90
1405;DHT22;697;51.114;6.542;2023-04-09T04:14:17;8.30;98.00
1405;DHT22;697;51.114;6.542;2023-04-09T04:16:43;8.30;98.10
1405;DHT22;697;51.114;6.542;2023-04-09T04:19:11;8.30;98.10
1405;DHT22;697;51.114;6.542;2023-04-09T04:21:38;8.30;98.10
1405;DHT22;697;51.114;6.542;2023-04-09T04:24:05;8.30;98.30
1405;DHT22;697;51.114;6.542;2023-04-09T04:26:32;8.30;98.40
1405;DHT22;697;51.114;6.542;2023-04-09T04:28:59;8.30;98.40
1405;DHT22;697;51.114;6.542;2023-04-09T04:31:25;8.30;98.40
1405;DHT22;697;51.114;6.542;2023-04-09T04:33:52;8.20;98.30
1405;DHT22;697;51.114;6.542;2023-04-09T04:36:20;8.20;98.20
1405;DHT22;697;51.114;6.542;2023-04-09T04:38:47;8.20;98.20
1405;DHT22;697;51.114;6.542;2023-04-09T04:41:13;8.20;98.30
1405;DHT22;697;51.114;6.542;2023-04-09T04:43:40;8.20;98.30
1405;DHT22;697;51.114;6.542;2023-04-09T04:46:07;8.20;98.30
1405;DHT22;697;51.114;6.542;2023-04-09T04:48:33;8.20;98.30
1405;DHT22;697;51.114;6.542;2023-04-09T04:51:01;8.20;98.30
1405;DHT22;697;51.114;6.542;2023-04-09T04:53:29;8.20;98.30
1405;DHT22;697;51.114;6.542;2023-04-09T04:55:55;8.10;98.20
1405;DHT22;697;51.114;6.542;2023-04-09T04:58:23;8.10;98.10
1405;DHT22;697;51.114;6.542;2023-04-09T05:00:50;8.10;97.80
1405;DHT22;697;51.114;6.542;2023-04-09T05:03:16;8.00;97.50
1405;DHT22;697;51.114;6.542;2023-04-09T05:05:43;7.90;97.10
1405;DHT22;697;51.114;6.542;2023-04-09T05:08:10;7.80;96.90
1405;DHT22;697;51.114;6.542;2023-04-09T05:10:41;7.80;96.80
1405;DHT22;697;51.114;6.542;2023-04-09T05:13:08;7.70;96.70
1405;DHT22;697;51.114;6.542;2023-04-09T05:15:37;7.70;96.70
1405;DHT22;697;51.114;6.542;2023-04-09T05:18:04;7.60;96.60
1405;DHT22;697;51.114;6.542;2023-04-09T05:20:31;7.60;96.70
1405;DHT22;697;51.114;6.542;2023-04-09T05:22:57;7.60;96.70
1405;DHT22;697;51.114;6.542;2023-04-09T05:25:24;7.60;96.90
1405;DHT22;697;51.114;6.542;2023-04-09T05:27:52;7.60;96.90
1405;DHT22;697;51.114;6.542;2023-04-09T05:30:19;7.60;97.00
1405;DHT22;697;51.114;6.542;2023-04-09T05:32:46;7.60;97.10
1405;DHT22;697;51.114;6.542;2023-04-09T05:35:12;7.60;97.30
1405;DHT22;697;51.114;6.542;2023-04-09T05:37:39;7.60;97.40
1405;DHT22;697;51.114;6.542;2023-04-09T05:40:07;7.60;97.50
1405;DHT22;697;51.114;6.542;2023-04-09T05:42:33;7.60;97.60
1405;DHT22;697;51.114;6.542;2023-04-09T05:45:01;7.70;97.80
1405;DHT22;697;51.114;6.542;2023-04-09T05:47:28;7.70;98.00
1405;DHT22;697;51.114;6.542;2023-04-09T05:49:55;7.70;98.00
1405;DHT22;697;51.114;6.542;2023-04-09T05:52:22;7.70;98.00
1405;DHT22;697;51.114;6.542;2023-04-09T05:54:48;7.80;98.20
1405;DHT22;697;51.114;6.542;2023-04-09T05:57:15;7.80;98.30
1405;DHT22;697;51.114;6.542;2023-04-09T05:59:42;7.80;98.40
1405;DHT22;697;51.114;6.542;2023-04-09T06:02:10;7.80;98.50
1405;DHT22;697;51.114;6.542;2023-04-09T06:04:36;7.90;98.70
1405;DHT22;697;51.114;6.542;2023-04-09T06:07:03;8.00;98.90
1405;DHT22;697;51.114;6.542;2023-04-09T06:09:30;8.00;99.10
1405;DHT22;697;51.114;6.542;2023-04-09T06:11:56;8.10;99.30
1405;DHT22;697;51.114;6.542;2023-04-09T06:14:23;8.10;99.40
1405;DHT22;697;51.114;6.542;2023-04-09T06:16:50;8.20;99.60
1405;DHT22;697;51.114;6.542;2023-04-09T06:19:18;8.20;99.90
1405;DHT22;697;51.114;6.542;2023-04-09T06:21:45;8.30;99.90
1405;DHT22;697;51.114;6.542;2023-04-09T06:24:11;8.40;99.90
1405;DHT22;697;51.114;6.542;2023-04-09T06:26:38;8.50;99.90
1405;DHT22;697;51.114;6.542;2023-04-09T06:29:05;8.60;99.90
1405;DHT22;697;51.114;6.542;2023-04-09T06:31:31;8.60;99.90
1405;DHT22;697;51.114;6.542;2023-04-09T06:33:58;8.70;99.90
1405;DHT22;697;51.114;6.542;2023-04-09T06:36:26;8.70;99.90
1405;DHT22;697;51.114;6.542;2023-04-09T06:38:54;8.90;99.90
1405;DHT22;697;51.114;6.542;2023-04-09T06:41:22;9.00;99.90
1405;DHT22;697;51.114;6.542;2023-04-09T06:43:49;9.10;99.90
1405;DHT22;697;51.114;6.542;2023-04-09T06:46:16;9.20;99.90
1405;DHT22;697;51.114;6.542;2023-04-09T06:48:44;9.30;99.90
1405;DHT22;697;51.114;6.542;2023-04-09T06:51:11;9.40;99.90
1405;DHT22;697;51.114;6.542;2023-04-09T06:53:40;9.50;99.90
1405;DHT22;697;51.114;6.542;2023-04-09T06:56:07;9.60;99.90
1405;DHT22;697;51.114;6.542;2023-04-09T06:58:34;9.70;99.90
1405;DHT22;697;51.114;6.542;2023-04-09T07:01:01;9.80;99.90
1405;DHT22;697;51.114;6.542;2023-04-09T07:03:29;9.90;99.90
1405;DHT22;697;51.114;6.542;2023-04-09T07:05:56;10.00;99.20
1405;DHT22;697;51.114;6.542;2023-04-09T07:08:23;10.10;98.90
1405;DHT22;697;51.114;6.542;2023-04-09T07:10:51;10.20;98.80
1405;DHT22;697;51.114;6.542;2023-04-09T07:13:18;10.30;98.60
1405;DHT22;697;51.114;6.542;2023-04-09T07:15:45;10.50;98.40
1405;DHT22;697;51.114;6.542;2023-04-09T07:18:11;10.60;98.20
1405;DHT22;697;51.114;6.542;2023-04-09T07:20:38;10.70;98.00
1405;DHT22;697;51.114;6.542;2023-04-09T07:23:05;10.80;98.00
1405;DHT22;697;51.114;6.542;2023-04-09T07:25:32;10.90;97.40
1405;DHT22;697;51.114;6.542;2023-04-09T07:28:00;11.00;97.10
1405;DHT22;697;51.114;6.542;2023-04-09T07:30:26;11.20;96.80
1405;DHT22;697;51.114;6.542;2023-04-09T07:32:53;11.30;96.40
1405;DHT22;697;51.114;6.542;2023-04-09T07:35:20;11.40;96.50
1405;DHT22;697;51.114;6.542;2023-04-09T07:37:47;11.50;95.80
1405;DHT22;697;51.114;6.542;2023-04-09T07:40:14;11.70;94.90
1405;DHT22;697;51.114;6.542;2023-04-09T07:42:40;11.80;94.70
1405;DHT22;697;51.114;6.542;2023-04-09T07:45:09;11.90;94.60
1405;DHT22;697;51.114;6.542;2023-04-09T07:47:36;12.10;94.40
1405;DHT22;697;51.114;6.542;2023-04-09T07:50:04;12.20;94.10
1405;DHT22;697;51.114;6.542;2023-04-09T07:52:31;12.30;93.30
1405;DHT22;697;51.114;6.542;2023-04-09T07:54:57;12.40;93.20
1405;DHT22;697;51.114;6.542;2023-04-09T07:57:24;12.50;92.80
1405;DHT22;697;51.114;6.542;2023-04-09T07:59:52;12.70;92.80
1405;DHT22;697;51.114;6.542;2023-04-09T08:02:21;12.80;92.50
1405;DHT22;697;51.114;6.542;2023-04-09T08:04:48;13.00;92.20
1405;DHT22;697;51.114;6.542;2023-04-09T08:07:15;13.10;91.90
1405;DHT22;697;51.114;6.542;2023-04-09T08:09:41;13.30;91.60
1405;DHT22;697;51.114;6.542;2023-04-09T08:12:08;13.40;91.20
1405;DHT22;697;51.114;6.542;2023-04-09T08:14:35;13.60;90.00
1405;DHT22;697;51.114;6.542;2023-04-09T08:17:02;13.70;87.20
1405;DHT22;697;51.114;6.542;2023-04-09T08:19:30;13.80;88.00
1405;DHT22;697;51.114;6.542;2023-04-09T08:21:57;14.00;87.80
1405;DHT22;697;51.114;6.542;2023-04-09T08:24:24;14.20;87.60
1405;DHT22;697;51.114;6.542;2023-04-09T08:26:51;14.40;87.00
1405;DHT22;697;51.114;6.542;2023-04-09T08:29:17;14.60;84.20
1405;DHT22;697;51.114;6.542;2023-04-09T08:31:44;14.80;84.60
1405;DHT22;697;51.114;6.542;2023-04-09T08:34:11;15.00;83.80
1405;DHT22;697;51.114;6.542;2023-04-09T08:36:44;15.20;82.90
1405;DHT22;697;51.114;6.542;2023-04-09T08:39:10;15.30;79.20
1405;DHT22;697;51.114;6.542;2023-04-09T08:41:40;15.30;77.60
1405;DHT22;697;51.114;6.542;2023-04-09T08:44:07;15.30;76.40
1405;DHT22;697;51.114;6.542;2023-04-09T08:46:35;15.10;76.60
1405;DHT22;697;51.114;6.542;2023-04-09T08:49:02;15.00;77.10
1405;DHT22;697;51.114;6.542;2023-04-09T08:51:29;15.00;77.80
1405;DHT22;697;51.114;6.542;2023-04-09T08:53:59;15.10;78.00
1405;DHT22;697;51.114;6.542;2023-04-09T08:56:26;15.20;78.40
1405;DHT22;697;51.114;6.542;2023-04-09T08:58:53;15.40;77.60
1405;DHT22;697;51.114;6.542;2023-04-09T09:01:21;15.60;76.70
1405;DHT22;697;51.114;6.542;2023-04-09T09:03:56;15.90;76.20
1405;DHT22;697;51.114;6.542;2023-04-09T09:06:24;16.10;73.30
1405;DHT22;697;51.114;6.542;2023-04-09T09:09:08;16.30;73.30
1405;DHT22;697;51.114;6.542;2023-04-09T09:11:36;16.50;72.40
1405;DHT22;697;51.114;6.542;2023-04-09T09:14:05;16.70;70.00
1405;DHT22;697;51.114;6.542;2023-04-09T09:16:32;16.70;68.30
1405;DHT22;697;51.114;6.542;2023-04-09T09:19:00;16.80;66.20
1405;DHT22;697;51.114;6.542;2023-04-09T09:21:28;16.80;63.40
1405;DHT22;697;51.114;6.542;2023-04-09T09:23:55;16.90;62.80
1405;DHT22;697;51.114;6.542;2023-04-09T09:26:25;17.20;62.50
1405;DHT22;697;51.114;6.542;2023-04-09T09:28:53;17.40;62.70
1405;DHT22;697;51.114;6.542;2023-04-09T09:31:21;17.60;58.90
1405;DHT22;697;51.114;6.542;2023-04-09T09:33:48;17.80;58.20
1405;DHT22;697;51.114;6.542;2023-04-09T09:36:29;18.00;57.30
1405;DHT22;697;51.114;6.542;2023-04-09T09:38:58;18.00;57.10
1405;DHT22;697;51.114;6.542;2023-04-09T09:41:29;18.10;58.00
1405;DHT22;697;51.114;6.542;2023-04-09T09:43:55;18.40;57.90
1405;DHT22;697;51.114;6.542;2023-04-09T09:46:24;18.60;56.30
1405;DHT22;697;51.114;6.542;2023-04-09T09:48:51;18.50;56.60
1405;DHT22;697;51.114;6.542;2023-04-09T09:51:18;18.50;57.10
1405;DHT22;697;51.114;6.542;2023-04-09T09:53:50;18.70;57.00
1405;DHT22;697;51.114;6.542;2023-04-09T09:56:22;18.80;55.90
1405;DHT22;697;51.114;6.542;2023-04-09T09:58:58;19.10;53.80
1405;DHT22;697;51.114;6.542;2023-04-09T10:01:27;19.30;51.00
1405;DHT22;697;51.114;6.542;2023-04-09T10:03:55;19.50;49.20
1405;DHT22;697;51.114;6.542;2023-04-09T10:06:24;19.70;48.50
1405;DHT22;697;51.114;6.542;2023-04-09T10:08:52;19.80;47.90
1405;DHT22;697;51.114;6.542;2023-04-09T10:11:22;20.20;48.50
1405;DHT22;697;51.114;6.542;2023-04-09T10:13:51;20.60;46.30
1405;DHT22;697;51.114;6.542;2023-04-09T10:16:20;21.00;44.00
1405;DHT22;697;51.114;6.542;2023-04-09T10:18:47;21.10;43.40
1405;DHT22;697;51.114;6.542;2023-04-09T10:21:23;21.00;42.50
1405;DHT22;697;51.114;6.542;2023-04-09T10:23:52;20.90;42.40
1405;DHT22;697;51.114;6.542;2023-04-09T10:26:19;20.80;42.70
1405;DHT22;697;51.114;6.542;2023-04-09T10:28:46;20.70;42.80
1405;DHT22;697;51.114;6.542;2023-04-09T10:31:44;21.00;43.90
1405;DHT22;697;51.114;6.542;2023-04-09T10:34:14;21.60;44.50
1405;DHT22;697;51.114;6.542;2023-04-09T10:36:42;22.00;43.30
1405;DHT22;697;51.114;6.542;2023-04-09T10:39:11;22.20;40.10
1405;DHT22;697;51.114;6.542;2023-04-09T10:41:38;22.70;41.10
1405;DHT22;697;51.114;6.542;2023-04-09T10:44:05;23.60;39.40
1405;DHT22;697;51.114;6.542;2023-04-09T10:46:35;23.90;36.10
1405;DHT22;697;51.114;6.542;2023-04-09T10:49:09;23.80;33.70
1405;DHT22;697;51.114;6.542;2023-04-09T10:51:37;23.70;35.00
1405;DHT22;697;51.114;6.542;2023-04-09T10:54:04;23.60;37.10
1405;DHT22;697;51.114;6.542;2023-04-09T10:56:32;23.60;38.00
1405;DHT22;697;51.114;6.542;2023-04-09T10:58:58;23.40;38.70
1405;DHT22;697;51.114;6.542;2023-04-09T11:01:25;23.20;39.20
1405;DHT22;697;51.114;6.542;2023-04-09T11:04:07;23.10;39.50
1405;DHT22;697;51.114;6.542;2023-04-09T11:06:35;23.10;39.60
1405;DHT22;697;51.114;6.542;2023-04-09T11:09:02;23.10;39.90
1405;DHT22;697;51.114;6.542;2023-04-09T11:11:29;23.50;39.40
1405;DHT22;697;51.114;6.542;2023-04-09T11:13:58;24.10;34.10
1405;DHT22;697;51.114;6.542;2023-04-09T11:16:27;24.60;35.90
1405;DHT22;697;51.114;6.542;2023-04-09T11:18:54;24.70;35.80
1405;DHT22;697;51.114;6.542;2023-04-09T11:21:26;24.90;33.50
1405;DHT22;697;51.114;6.542;2023-04-09T11:23:53;25.00;33.80
1405;DHT22;697;51.114;6.542;2023-04-09T11:26:22;25.40;35.30
1405;DHT22;697;51.114;6.542;2023-04-09T11:28:54;26.10;32.50
1405;DHT22;697;51.114;6.542;2023-04-09T11:31:26;26.50;31.20
1405;DHT22;697;51.114;6.542;2023-04-09T11:33:53;27.30;29.60
1405;DHT22;697;51.114;6.542;2023-04-09T11:36:20;28.00;30.00
1405;DHT22;697;51.114;6.542;2023-04-09T11:38:48;28.50;29.90
1405;DHT22;697;51.114;6.542;2023-04-09T11:41:15;28.70;28.30
1405;DHT22;697;51.114;6.542;2023-04-09T11:43:42;28.50;27.30
1405;DHT22;697;51.114;6.542;2023-04-09T11:46:09;28.40;28.50
1405;DHT22;697;51.114;6.542;2023-04-09T11:48:36;28.00;26.90
1405;DHT22;697;51.114;6.542;2023-04-09T11:51:03;28.20;28.60
1405;DHT22;697;51.114;6.542;2023-04-09T11:53:30;29.00;28.10
1405;DHT22;697;51.114;6.542;2023-04-09T11:55:58;29.80;25.50
1405;DHT22;697;51.114;6.542;2023-04-09T11:58:26;29.90;25.30
1405;DHT22;697;51.114;6.542;2023-04-09T12:00:53;29.80;25.10
1405;DHT22;697;51.114;6.542;2023-04-09T12:03:27;29.90;24.50
1405;DHT22;697;51.114;6.542;2023-04-09T12:05:54;30.30;25.50
1405;DHT22;697;51.114;6.542;2023-04-09T12:08:22;31.20;25.90
1405;DHT22;697;51.114;6.542;2023-04-09T12:10:49;32.10;23.70
1405;DHT22;697;51.114;6.542;2023-04-09T12:13:17;32.00;22.40
1405;DHT22;697;51.114;6.542;2023-04-09T12:15:44;31.60;22.70
1405;DHT22;697;51.114;6.542;2023-04-09T12:18:14;30.90;23.30
1405;DHT22;697;51.114;6.542;2023-04-09T12:20:42;30.60;25.20
1405;DHT22;697;51.114;6.542;2023-04-09T12:23:10;30.60;25.90
1405;DHT22;697;51.114;6.542;2023-04-09T12:25:39;31.30;25.70
1405;DHT22;697;51.114;6.542;2023-04-09T12:28:11;32.20;25.00
1405;DHT22;697;51.114;6.542;2023-04-09T12:30:41;33.50;23.00
1405;DHT22;697;51.114;6.542;2023-04-09T12:33:09;34.20;20.60
1405;DHT22;697;51.114;6.542;2023-04-09T12:35:35;33.60;20.20
1405;DHT22;697;51.114;6.542;2023-04-09T12:38:03;32.40;20.90
1405;DHT22;697;51.114;6.542;2023-04-09T12:40:30;31.50;22.00
1405;DHT22;697;51.114;6.542;2023-04-09T12:42:56;31.50;24.40
1405;DHT22;697;51.114;6.542;2023-04-09T12:45:23;31.60;24.10
1405;DHT22;697;51.114;6.542;2023-04-09T12:47:51;31.50;23.00
1405;DHT22;697;51.114;6.542;2023-04-09T12:50:18;31.90;21.90
1405;DHT22;697;51.114;6.542;2023-04-09T12:52:45;32.20;21.50
1405;DHT22;697;51.114;6.542;2023-04-09T12:55:12;32.40;21.40
1405;DHT22;697;51.114;6.542;2023-04-09T12:57:42;32.30;21.10
1405;DHT22;697;51.114;6.542;2023-04-09T13:00:10;31.80;21.40
1405;DHT22;697;51.114;6.542;2023-04-09T13:02:37;31.20;23.50
1405;DHT22;697;51.114;6.542;2023-04-09T13:05:05;31.00;23.80
1405;DHT22;697;51.114;6.542;2023-04-09T13:07:32;30.80;24.10
1405;DHT22;697;51.114;6.542;2023-04-09T13:09:59;30.90;24.80
1405;DHT22;697;51.114;6.542;2023-04-09T13:12:26;31.80;24.80
1405;DHT22;697;51.114;6.542;2023-04-09T13:14:53;32.80;21.90
1405;DHT22;697;51.114;6.542;2023-04-09T13:17:21;32.80;22.20
1405;DHT22;697;51.114;6.542;2023-04-09T13:19:48;32.90;22.50
1405;DHT22;697;51.114;6.542;2023-04-09T13:22:17;32.90;22.80
1405;DHT22;697;51.114;6.542;2023-04-09T13:24:43;33.20;22.20
1405;DHT22;697;51.114;6.542;2023-04-09T13:27:10;33.90;21.60
1405;DHT22;697;51.114;6.542;2023-04-09T13:29:37;34.60;21.20
1405;DHT22;697;51.114;6.542;2023-04-09T13:32:04;34.40;20.40
1405;DHT22;697;51.114;6.542;2023-04-09T13:34:32;33.90;20.70
1405;DHT22;697;51.114;6.542;2023-04-09T13:36:59;33.40;21.90
1405;DHT22;697;51.114;6.542;2023-04-09T13:39:27;33.20;22.00
1405;DHT22;697;51.114;6.542;2023-04-09T13:41:55;33.70;22.00
1405;DHT22;697;51.114;6.542;2023-04-09T13:44:21;34.40;21.40
1405;DHT22;697;51.114;6.542;2023-04-09T13:46:48;35.30;20.30
1405;DHT22;697;51.114;6.542;2023-04-09T13:49:15;35.80;20.10
1405;DHT22;697;51.114;6.542;2023-04-09T13:51:42;36.60;19.10
1405;DHT22;697;51.114;6.542;2023-04-09T13:54:08;37.00;18.70
1405;DHT22;697;51.114;6.542;2023-04-09T13:56:37;37.20;18.30
1405;DHT22;697;51.114;6.542;2023-04-09T13:59:04;36.60;18.90
1405;DHT22;697;51.114;6.542;2023-04-09T14:01:30;35.70;19.10
1405;DHT22;697;51.114;6.542;2023-04-09T14:03:57;35.40;19.70
1405;DHT22;697;51.114;6.542;2023-04-09T14:06:24;34.80;20.20
1405;DHT22;697;51.114;6.542;2023-04-09T14:08:51;34.30;20.80
1405;DHT22;697;51.114;6.542;2023-04-09T14:11:18;34.10;21.40
1405;DHT22;697;51.114;6.542;2023-04-09T14:13:46;34.30;20.10
1405;DHT22;697;51.114;6.542;2023-04-09T14:16:13;34.20;20.40
1405;DHT22;697;51.114;6.542;2023-04-09T14:18:40;34.70;20.50
1405;DHT22;697;51.114;6.542;2023-04-09T14:21:07;35.40;19.20
1405;DHT22;697;51.114;6.542;2023-04-09T14:23:33;35.60;19.10
1405;DHT22;697;51.114;6.542;2023-04-09T14:26:01;36.10;19.70
1405;DHT22;697;51.114;6.542;2023-04-09T14:28:28;36.70;18.10
1405;DHT22;697;51.114;6.542;2023-04-09T14:30:58;37.30;18.50
1405;DHT22;697;51.114;6.542;2023-04-09T14:33:25;37.80;17.80
1405;DHT22;697;51.114;6.542;2023-04-09T14:35:52;38.10;17.30
1405;DHT22;697;51.114;6.542;2023-04-09T14:38:18;37.80;17.50
1405;DHT22;697;51.114;6.542;2023-04-09T14:40:45;37.20;17.60
1405;DHT22;697;51.114;6.542;2023-04-09T14:43:12;36.50;17.30
1405;DHT22;697;51.114;6.542;2023-04-09T14:45:38;35.80;18.40
1405;DHT22;697;51.114;6.542;2023-04-09T14:48:07;35.60;19.40
1405;DHT22;697;51.114;6.542;2023-04-09T14:50:34;35.60;19.60
1405;DHT22;697;51.114;6.542;2023-04-09T14:53:01;35.10;19.60
1405;DHT22;697;51.114;6.542;2023-04-09T14:55:28;34.50;20.30
1405;DHT22;697;51.114;6.542;2023-04-09T14:57:55;34.10;20.70
1405;DHT22;697;51.114;6.542;2023-04-09T15:00:22;33.50;20.80
1405;DHT22;697;51.114;6.542;2023-04-09T15:02:48;33.10;21.60
1405;DHT22;697;51.114;6.542;2023-04-09T15:05:16;33.40;21.40
1405;DHT22;697;51.114;6.542;2023-04-09T15:07:43;33.60;21.00
1405;DHT22;697;51.114;6.542;2023-04-09T15:10:10;33.90;20.90
1405;DHT22;697;51.114;6.542;2023-04-09T15:12:37;34.30;20.60
1405;DHT22;697;51.114;6.542;2023-04-09T15:15:05;34.80;20.30
1405;DHT22;697;51.114;6.542;2023-04-09T15:17:32;35.20;19.80
1405;DHT22;697;51.114;6.542;2023-04-09T15:19:59;35.10;19.60
1405;DHT22;697;51.114;6.542;2023-04-09T15:25:49;35.40;19.80
1405;DHT22;697;51.114;6.542;2023-04-09T15:28:16;35.70;19.30
1405;DHT22;697;51.114;6.542;2023-04-09T15:30:43;36.00;19.10
1405;DHT22;697;51.114;6.542;2023-04-09T15:33:10;36.10;19.00
1405;DHT22;697;51.114;6.542;2023-04-09T15:35:37;36.30;18.30
1405;DHT22;697;51.114;6.542;2023-04-09T15:38:04;36.10;17.50
1405;DHT22;697;51.114;6.542;2023-04-09T15:40:31;35.40;17.10
1405;DHT22;697;51.114;6.542;2023-04-09T15:42:59;34.80;17.90
1405;DHT22;697;51.114;6.542;2023-04-09T15:45:25;34.50;19.80
1405;DHT22;697;51.114;6.542;2023-04-09T15:47:52;34.30;20.00
1405;DHT22;697;51.114;6.542;2023-04-09T15:50:19;34.30;20.30
1405;DHT22;697;51.114;6.542;2023-04-09T15:52:48;34.30;20.50
1405;DHT22;697;51.114;6.542;2023-04-09T15:55:15;34.30;20.10
1405;DHT22;697;51.114;6.542;2023-04-09T15:57:43;34.20;20.30
1405;DHT22;697;51.114;6.542;2023-04-09T16:00:12;34.20;20.40
1405;DHT22;697;51.114;6.542;2023-04-09T16:02:39;34.10;20.30
1405;DHT22;697;51.114;6.542;2023-04-09T16:05:06;33.60;20.20
1405;DHT22;697;51.114;6.542;2023-04-09T16:07:33;33.30;20.70
1405;DHT22;697;51.114;6.542;2023-04-09T16:10:00;33.20;20.90
1405;DHT22;697;51.114;6.542;2023-04-09T16:12:28;33.10;21.30
1405;DHT22;697;51.114;6.542;2023-04-09T16:14:54;32.80;21.60
1405;DHT22;697;51.114;6.542;2023-04-09T16:17:23;32.70;21.40
1405;DHT22;697;51.114;6.542;2023-04-09T16:19:49;32.40;21.60
1405;DHT22;697;51.114;6.542;2023-04-09T16:22:16;32.00;22.00
1405;DHT22;697;51.114;6.542;2023-04-09T16:24:43;31.50;22.00
1405;DHT22;697;51.114;6.542;2023-04-09T16:27:10;31.40;22.50